Terminal Aerodrome Forecast
Issued by NWS

Home | Current Version | Previous Version | Text Only | Print | Product List | Glossary On
Versions: 1 2 3 4 5 6 7 8 9 10 11 12 13 14 15 16 17
307
FTUS41 KPBZ 211944 AAA
TAFHLG
TAF AMD
KHLG 211944Z 2120/2218 34012KT P6SM -RA OVC010
     FM212200 35010KT P6SM OVC025
     FM220600 02009KT 5SM -RA OVC015
     FM221500 05011KT 3SM -RA BR OVC008=

USA.gov is the U.S. government's official web portal to all federal, state and local government web resources and services.